createdAt,value
2018-02-20T08:09:46.137Z,1012.42
2018-02-20T08:10:44.429Z,1012.40
2018-02-20T08:12:48.989Z,1012.45
2018-02-20T08:13:49.126Z,1012.40
2018-02-20T08:16:15.435Z,1012.44
2018-02-20T08:17:14.731Z,1012.42
2018-02-20T08:21:19.991Z,1012.45
2018-02-20T08:22:18.474Z,1012.44
2018-02-20T08:28:14.441Z,1012.47
2018-02-20T08:30:00.827Z,1012.43
2018-02-20T08:31:01.069Z,1012.48
2018-02-20T08:35:33.609Z,1012.45
2018-02-20T08:36:33.485Z,1012.44
2018-02-20T08:38:38.669Z,1012.46
2018-02-20T08:39:38.803Z,1012.46
2018-02-20T08:41:43.396Z,1012.45
2018-02-20T08:42:43.231Z,1012.46
2018-02-20T08:44:47.179Z,1012.44
2018-02-20T08:45:47.245Z,1012.48
2018-02-20T08:47:51.678Z,1012.44
2018-02-20T08:48:51.380Z,1012.46
2018-02-20T08:50:55.783Z,1012.46
2018-02-20T08:51:55.448Z,1012.47
2018-02-20T08:53:59.902Z,1012.45
2018-02-20T08:54:59.694Z,1012.45
2018-02-20T08:57:02.566Z,1012.43
2018-02-20T08:58:02.016Z,1012.40
2018-02-20T09:00:06.275Z,1012.41
2018-02-20T09:01:06.159Z,1012.40
2018-02-20T09:03:10.525Z,1012.37
2018-02-20T09:04:10.381Z,1012.38
2018-02-20T09:06:14.870Z,1012.40
2018-02-20T09:07:14.810Z,1012.36
2018-02-20T09:09:18.856Z,1012.39
2018-02-20T09:10:18.997Z,1012.41
2018-02-20T09:12:24.370Z,1012.39
2018-02-20T09:13:23.999Z,1012.35
2018-02-20T09:15:29.026Z,1012.36
2018-02-20T09:16:28.484Z,1012.36
2018-02-20T09:18:32.755Z,1012.39
2018-02-20T09:19:32.874Z,1012.35
2018-02-20T09:21:37.689Z,1012.32
2018-02-20T09:22:37.762Z,1012.40
2018-02-20T09:24:42.755Z,1012.38
2018-02-20T09:25:42.593Z,1012.39
2018-02-20T09:27:47.505Z,1012.45
2018-02-20T09:28:47.433Z,1012.44
2018-02-20T09:30:52.667Z,1012.46
2018-02-20T09:31:53.319Z,1012.34
2018-02-20T09:34:05.046Z,1012.37
2018-02-20T09:35:01.667Z,1012.40
2018-02-20T09:36:01.633Z,1012.33
2018-02-20T09:37:01.686Z,1012.35
2018-02-20T09:38:01.560Z,1012.31
2018-02-20T09:39:01.992Z,1012.32
2018-02-20T09:40:02.082Z,1012.31
2018-02-20T09:41:01.798Z,1012.31
2018-02-20T09:42:02.390Z,1012.34
2018-02-20T09:43:01.762Z,1012.31
2018-02-20T09:44:02.173Z,1012.26
2018-02-20T09:45:01.971Z,1012.29
2018-02-20T09:46:01.854Z,1012.24
2018-02-20T09:47:01.879Z,1012.27
2018-02-20T09:48:01.969Z,1012.27
2018-02-20T09:49:02.027Z,1012.24
2018-02-20T10:01:06.707Z,1012.26
2018-02-20T10:02:05.432Z,1012.21
2018-02-20T10:04:06.250Z,1012.25
2018-02-20T10:05:05.629Z,1012.28
2018-02-20T10:06:05.948Z,1012.33
2018-02-20T10:09:05.433Z,1012.36
2018-02-20T10:10:05.254Z,1012.36
2018-02-20T10:11:05.256Z,1012.33
2018-02-20T10:12:05.285Z,1012.32
2018-02-20T10:13:05.326Z,1012.37
2018-02-20T10:14:05.365Z,1012.32
2018-02-20T10:15:05.436Z,1012.33
2018-02-20T10:16:07.364Z,1012.32
2018-02-20T10:17:05.491Z,1012.36
2018-02-20T10:18:05.515Z,1012.31
2018-02-20T10:19:05.558Z,1012.37
2018-02-20T10:20:05.592Z,1012.34
2018-02-20T10:21:05.869Z,1012.33
2018-02-20T10:22:05.668Z,1012.42
2018-02-20T10:23:06.139Z,1012.39
2018-02-20T10:24:06.090Z,1012.35
2018-02-20T10:25:05.782Z,1012.36
2018-02-20T10:26:06.095Z,1012.39
2018-02-20T10:27:06.363Z,1012.35
2018-02-20T10:28:05.896Z,1012.36
2018-02-20T10:29:06.079Z,1012.35
2018-02-20T10:30:05.975Z,1012.38
2018-02-20T10:32:06.175Z,1012.39
2018-02-20T10:33:06.102Z,1012.36
2018-02-20T10:34:06.126Z,1012.37
2018-02-20T10:35:06.167Z,1012.33
2018-02-20T10:36:06.310Z,1012.35
2018-02-20T10:37:06.246Z,1012.32
2018-02-20T10:38:06.368Z,1012.28
2018-02-20T10:39:06.338Z,1012.31
2018-02-20T10:40:06.361Z,1012.35
2018-02-20T10:41:06.408Z,1012.34
2018-02-20T10:42:06.468Z,1012.40
2018-02-20T10:43:06.545Z,1012.32
2018-02-20T10:44:06.550Z,1012.39
2018-02-20T10:45:06.542Z,1012.40
2018-02-20T10:46:06.640Z,1012.44
2018-02-20T10:47:06.626Z,1012.38
2018-02-20T10:48:06.664Z,1012.42
2018-02-20T10:49:06.937Z,1012.43
2018-02-20T10:50:06.987Z,1012.41
2018-02-20T10:51:06.784Z,1012.43
2018-02-20T10:52:06.819Z,1012.44
2018-02-20T10:53:06.870Z,1012.46
2018-02-20T10:54:06.894Z,1012.44
2018-02-20T10:55:06.937Z,1012.45
2018-02-20T10:56:06.995Z,1012.44
2018-02-20T10:57:07.102Z,1012.39
2018-02-20T10:58:07.083Z,1012.37
2018-02-20T10:59:07.086Z,1012.38
2018-02-20T11:00:07.143Z,1012.41
2018-02-20T11:01:07.350Z,1012.41
2018-02-20T11:02:07.252Z,1012.40
2018-02-20T11:03:07.248Z,1012.41
2018-02-20T11:04:07.353Z,1012.43
2018-02-20T11:05:07.336Z,1012.46
2018-02-20T11:06:07.582Z,1012.47
2018-02-20T11:07:07.403Z,1012.43
2018-02-20T11:08:07.710Z,1012.43
2018-02-20T11:09:07.658Z,1012.46
2018-02-20T11:10:07.837Z,1012.46
2018-02-20T11:11:07.560Z,1012.48
2018-02-20T11:12:07.595Z,1012.50
2018-02-20T11:13:07.671Z,1012.48
2018-02-20T11:14:07.732Z,1012.52
2018-02-20T11:15:07.932Z,1012.51
2018-02-20T11:16:07.794Z,1012.47
2018-02-20T11:17:07.850Z,1012.47
2018-02-20T11:18:07.843Z,1012.49
2018-02-20T11:19:07.874Z,1012.42
2018-02-20T11:20:07.910Z,1012.42
2018-02-20T11:21:08.132Z,1012.42
2018-02-20T11:22:08.027Z,1012.38
2018-02-20T11:23:08.080Z,1012.42
2018-02-20T11:24:08.062Z,1012.36
2018-02-20T11:25:08.122Z,1012.45
2018-02-20T11:26:08.157Z,1012.42
2018-02-20T11:27:08.516Z,1012.44
2018-02-20T11:28:08.243Z,1012.43
2018-02-20T11:29:08.255Z,1012.39
2018-02-20T11:30:08.327Z,1012.43
2018-02-20T11:31:08.404Z,1012.42
2018-02-20T11:32:12.028Z,1012.43
2018-02-20T11:33:08.412Z,1012.43
2018-02-20T11:34:08.481Z,1012.40
2018-02-20T11:35:08.540Z,1012.42
2018-02-20T11:36:08.569Z,1012.42
2018-02-20T11:37:08.599Z,1012.42
2018-02-20T11:38:08.618Z,1012.40
2018-02-20T11:39:08.706Z,1012.39
2018-02-20T11:40:08.685Z,1012.40
2018-02-20T11:42:08.844Z,1012.47
2018-02-20T11:43:08.819Z,1012.43
2018-02-20T11:44:08.838Z,1012.43
2018-02-20T11:45:08.884Z,1012.43
2018-02-20T11:46:09.080Z,1012.46
2018-02-20T11:47:08.981Z,1012.49
2018-02-20T11:48:09.002Z,1012.47
2018-02-20T11:49:09.074Z,1012.43
2018-02-20T11:50:09.069Z,1012.45
2018-02-20T11:51:09.168Z,1012.45
2018-02-20T11:52:09.156Z,1012.42
2018-02-20T11:53:09.194Z,1012.45
2018-02-20T11:54:09.244Z,1012.46
2018-02-20T11:55:09.273Z,1012.47
2018-02-20T11:56:09.312Z,1012.47
2018-02-20T11:57:09.420Z,1012.49
2018-02-20T11:58:09.393Z,1012.45
2018-02-20T11:59:09.619Z,1012.41
2018-02-20T12:00:10.218Z,1012.39
2018-02-20T12:01:09.511Z,1012.48
2018-02-20T12:02:09.903Z,1012.51
2018-02-20T12:03:09.590Z,1012.46
2018-02-20T12:04:09.685Z,1012.43
2018-02-20T12:05:09.663Z,1012.44
2018-02-20T12:06:09.696Z,1012.45
2018-02-20T12:07:09.744Z,1012.44
2018-02-20T12:08:09.785Z,1012.38
2018-02-20T12:09:09.860Z,1012.38
2018-02-20T12:10:09.857Z,1012.39
2018-02-20T12:11:09.891Z,1012.36
2018-02-20T12:12:10.004Z,1012.36
2018-02-20T12:13:09.973Z,1012.32
2018-02-20T12:14:10.211Z,1012.32
2018-02-20T12:15:10.067Z,1012.37
2018-02-20T12:16:10.159Z,1012.40
2018-02-20T12:17:10.133Z,1012.38
2018-02-20T12:18:10.207Z,1012.37
2018-02-20T12:19:10.231Z,1012.35
2018-02-20T12:20:10.271Z,1012.36
2018-02-20T12:21:10.324Z,1012.41
2018-02-20T12:22:10.323Z,1012.38
2018-02-20T12:23:10.413Z,1012.43
2018-02-20T12:24:10.421Z,1012.42
2018-02-20T12:25:10.441Z,1012.46
2018-02-20T12:26:10.506Z,1012.42
2018-02-20T12:27:10.594Z,1012.43
2018-02-20T12:28:10.592Z,1012.45
2018-02-20T12:29:10.595Z,1012.45
2018-02-20T12:30:10.740Z,1012.45
2018-02-20T12:31:10.697Z,1012.36
2018-02-20T12:32:10.718Z,1012.44
2018-02-20T12:33:10.750Z,1012.42
2018-02-20T12:34:10.793Z,1012.41
2018-02-20T12:35:10.855Z,1012.37
2018-02-20T12:36:10.959Z,1012.42
2018-02-20T12:37:10.940Z,1012.42
2018-02-20T12:38:11.033Z,1012.40
2018-02-20T12:39:10.992Z,1012.37
2018-02-20T12:40:11.079Z,1012.41
2018-02-20T12:41:11.162Z,1012.42
2018-02-20T12:42:11.128Z,1012.46
2018-02-20T12:43:11.142Z,1012.48
2018-02-20T12:44:11.189Z,1012.37
2018-02-20T12:45:11.311Z,1012.40
2018-02-20T12:46:11.265Z,1012.40
2018-02-20T12:47:11.393Z,1012.44
2018-02-20T12:48:11.362Z,1012.41
2018-02-20T12:49:11.383Z,1012.46
2018-02-20T12:50:11.415Z,1012.48
2018-02-20T12:51:11.473Z,1012.44
2018-02-20T12:52:11.491Z,1012.41
2018-02-20T12:53:11.567Z,1012.40
2018-02-20T12:54:11.575Z,1012.37
2018-02-20T12:55:11.602Z,1012.39
2018-02-20T12:56:11.756Z,1012.41
2018-02-20T12:57:11.694Z,1012.36
2018-02-20T12:58:12.277Z,1012.39
2018-02-20T12:59:11.920Z,1012.38
2018-02-20T13:00:11.861Z,1012.35
2018-02-20T13:01:11.846Z,1012.38
2018-02-20T13:02:11.888Z,1012.33
2018-02-20T13:03:11.920Z,1012.37
2018-02-20T13:04:11.959Z,1012.36
2018-02-20T13:05:11.996Z,1012.36
2018-02-20T13:06:12.221Z,1012.39
2018-02-20T13:07:12.076Z,1012.33
2018-02-20T13:08:12.111Z,1012.38
2018-02-20T13:09:12.322Z,1012.38
2018-02-20T13:10:12.191Z,1012.42
2018-02-20T13:11:12.425Z,1012.40
2018-02-20T13:12:12.318Z,1012.39
2018-02-20T13:13:12.403Z,1012.38
2018-02-20T13:14:12.377Z,1012.39
2018-02-20T13:15:12.426Z,1012.42
2018-02-20T13:16:12.477Z,1012.40
2018-02-20T13:17:12.628Z,1012.41
2018-02-20T13:18:12.602Z,1012.40
2018-02-20T13:19:12.586Z,1012.40
2018-02-20T13:20:12.591Z,1012.43
2018-02-20T13:21:12.626Z,1012.41
2018-02-20T13:22:12.706Z,1012.41
2018-02-20T13:23:12.915Z,1012.43
2018-02-20T13:24:12.731Z,1012.40
2018-02-20T13:25:12.766Z,1012.40
2018-02-20T13:26:12.830Z,1012.39
2018-02-20T13:27:12.846Z,1012.42
2018-02-20T13:28:12.883Z,1012.42
2018-02-20T13:29:12.916Z,1012.36
2018-02-20T13:30:12.991Z,1012.40
2018-02-20T13:31:13.017Z,1012.32
2018-02-20T13:32:13.040Z,1012.37
2018-02-20T13:33:13.104Z,1012.39
2018-02-20T13:34:13.141Z,1012.36
2018-02-20T13:35:13.281Z,1012.38
2018-02-20T13:36:13.372Z,1012.34
2018-02-20T13:37:13.248Z,1012.40
2018-02-20T13:38:13.340Z,1012.38
2018-02-20T13:39:13.424Z,1012.38
2018-02-20T13:40:13.460Z,1012.43
2018-02-20T13:41:14.327Z,1012.40
2018-02-20T13:42:13.468Z,1012.45
2018-02-20T13:43:13.600Z,1012.47
2018-02-20T13:44:14.245Z,1012.42
2018-02-20T13:45:13.728Z,1012.52
2018-02-20T13:46:13.622Z,1012.46
2018-02-20T13:47:13.950Z,1012.47
2018-02-20T13:48:13.776Z,1012.42
2018-02-20T13:49:14.140Z,1012.42
2018-02-20T13:50:13.747Z,1012.46
2018-02-20T13:51:14.809Z,1012.44
2018-02-20T13:52:13.890Z,1012.47
2018-02-20T13:53:13.860Z,1012.44
2018-02-20T13:54:14.368Z,1012.46
2018-02-20T13:55:13.947Z,1012.50
2018-02-20T13:56:14.007Z,1012.50
2018-02-20T13:57:14.061Z,1012.52
2018-02-20T13:59:14.143Z,1012.44
2018-02-20T14:00:14.206Z,1012.44
2018-02-20T14:01:14.293Z,1012.48
2018-02-20T14:02:14.221Z,1012.52
2018-02-20T14:03:14.240Z,1012.49
2018-02-20T14:04:14.350Z,1012.50
2018-02-20T14:05:14.342Z,1012.36
2018-02-20T14:06:14.359Z,1012.35
2018-02-20T14:07:14.407Z,1012.35
2018-02-20T14:08:14.442Z,1012.40
2018-02-20T14:09:14.555Z,1012.36
2018-02-20T14:10:15.361Z,1012.36
2018-02-20T14:11:14.736Z,1012.35
2018-02-20T14:12:14.823Z,1012.40
2018-02-20T14:13:14.724Z,1012.39
2018-02-20T14:14:14.751Z,1012.41
2018-02-20T14:15:14.709Z,1012.41
2018-02-20T14:16:14.764Z,1012.39
2018-02-20T14:17:14.778Z,1012.43
2018-02-20T14:18:14.816Z,1012.41
2018-02-20T14:19:15.188Z,1012.44
2018-02-20T14:20:14.962Z,1012.47
2018-02-20T14:21:14.925Z,1012.50
2018-02-20T14:22:14.964Z,1012.50
2018-02-20T14:23:15.005Z,1012.51
2018-02-20T14:24:15.043Z,1012.50
2018-02-20T14:25:15.119Z,1012.51
2018-02-20T14:26:15.114Z,1012.42
2018-02-20T14:27:15.154Z,1012.54
2018-02-20T14:28:15.184Z,1012.66
2018-02-20T14:29:15.246Z,1012.64
2018-02-20T14:30:15.258Z,1012.58
2018-02-20T14:31:15.304Z,1012.63
2018-02-20T14:32:15.337Z,1012.61
2018-02-20T14:33:15.372Z,1012.60
2018-02-20T14:34:15.450Z,1012.59
2018-02-20T14:35:15.451Z,1012.63
2018-02-20T14:36:15.480Z,1012.67
2018-02-20T14:37:15.514Z,1012.66
2018-02-20T14:38:15.551Z,1012.66
2018-02-20T14:39:15.597Z,1012.64
2018-02-20T14:40:15.626Z,1012.67
2018-02-20T14:41:15.659Z,1012.61
2018-02-20T14:42:15.711Z,1012.64
2018-02-20T14:43:15.742Z,1012.62
2018-02-20T14:44:15.779Z,1012.67
2018-02-20T14:45:15.802Z,1012.63
2018-02-20T14:46:15.853Z,1012.62
2018-02-20T14:47:15.870Z,1012.57
2018-02-20T14:48:15.928Z,1012.66
2018-02-20T14:49:15.997Z,1012.63
2018-02-20T14:50:16.031Z,1012.64
2018-02-20T14:51:16.034Z,1012.63
2018-02-20T14:52:16.053Z,1012.68
2018-02-20T14:53:16.097Z,1012.62
2018-02-20T14:54:16.141Z,1012.63
2018-02-20T14:55:16.160Z,1012.60
2018-02-20T14:56:16.198Z,1012.53
2018-02-20T14:57:16.233Z,1012.62
2018-02-20T14:58:16.278Z,1012.64
2018-02-20T14:59:16.322Z,1012.62
2018-02-20T15:00:16.363Z,1012.66
2018-02-20T15:01:16.378Z,1012.70
2018-02-20T15:02:16.427Z,1012.72
2018-02-20T15:03:16.452Z,1012.70
2018-02-20T15:04:16.508Z,1012.69
2018-02-20T15:05:16.545Z,1012.66
2018-02-20T15:06:16.562Z,1012.72
2018-02-20T15:07:16.594Z,1012.74
2018-02-20T15:08:16.633Z,1012.75
2018-02-20T15:09:16.663Z,1012.76
2018-02-20T15:10:16.817Z,1012.79
2018-02-20T15:11:16.747Z,1012.79
2018-02-20T15:12:16.874Z,1012.73
2018-02-20T15:13:16.815Z,1012.75
2018-02-20T15:14:17.628Z,1012.79
2018-02-20T15:15:16.916Z,1012.82
2018-02-20T15:16:17.029Z,1012.77
2018-02-20T15:17:16.969Z,1012.82
2018-02-20T15:18:17.004Z,1012.81
2018-02-20T15:19:17.040Z,1012.85
2018-02-20T15:20:17.157Z,1012.87
2018-02-20T15:21:17.106Z,1012.82
2018-02-20T15:22:17.152Z,1012.85
2018-02-20T15:23:17.192Z,1012.91
2018-02-20T15:24:17.325Z,1012.87
2018-02-20T15:25:17.262Z,1012.89
2018-02-20T15:26:17.294Z,1012.92
2018-02-20T15:27:17.786Z,1012.90
2018-02-20T15:28:17.376Z,1012.96
2018-02-20T15:29:17.416Z,1012.92
2018-02-20T15:30:17.453Z,1012.92
2018-02-20T15:31:17.483Z,1013.01
2018-02-20T15:32:17.544Z,1012.96
2018-02-20T15:33:17.580Z,1012.92
2018-02-20T15:34:17.596Z,1012.97
2018-02-20T15:35:17.633Z,1012.97
2018-02-20T15:36:17.671Z,1012.95
2018-02-20T15:37:17.716Z,1012.97
2018-02-20T15:38:17.759Z,1012.92
2018-02-20T15:39:17.789Z,1012.95
2018-02-20T15:40:17.816Z,1012.97
2018-02-20T15:41:17.873Z,1013.01
2018-02-20T15:42:17.897Z,1013.03
2018-02-20T15:43:17.936Z,1013.01
2018-02-20T15:44:17.972Z,1012.99
2018-02-20T15:45:18.022Z,1012.98
2018-02-20T15:46:18.076Z,1013.02
2018-02-20T15:47:18.089Z,1013.02
2018-02-20T15:48:18.171Z,1013.01
2018-02-20T15:49:18.165Z,1013.05
2018-02-20T15:50:18.209Z,1013.04
2018-02-20T15:51:18.258Z,1013.11
2018-02-20T15:52:18.270Z,1013.16
2018-02-20T15:53:18.314Z,1013.16
2018-02-20T15:54:18.350Z,1013.17
2018-02-20T15:55:18.450Z,1013.22
2018-02-20T15:56:18.422Z,1013.17
2018-02-20T15:57:18.535Z,1013.21
2018-02-20T15:58:18.513Z,1013.25
2018-02-20T15:59:18.541Z,1013.23
2018-02-20T16:00:18.576Z,1013.29
2018-02-20T16:01:18.932Z,1013.26
2018-02-20T16:02:18.748Z,1013.31
2018-02-20T16:03:18.703Z,1013.36
2018-02-20T16:04:18.753Z,1013.32
2018-02-20T16:05:18.821Z,1013.37
2018-02-20T16:06:18.810Z,1013.36
2018-02-20T16:07:18.842Z,1013.32
2018-02-20T16:08:18.886Z,1013.35
2018-02-20T16:09:19.124Z,1013.38
2018-02-20T16:10:18.960Z,1013.37
2018-02-20T16:11:19.179Z,1013.39
2018-02-20T16:12:19.157Z,1013.41
2018-02-20T16:13:19.119Z,1013.40
2018-02-20T16:14:19.147Z,1013.44
2018-02-20T16:15:19.191Z,1013.47
2018-02-20T16:16:19.211Z,1013.41
2018-02-20T16:17:19.294Z,1013.42
2018-02-20T16:18:19.601Z,1013.38
2018-02-20T16:19:19.675Z,1013.39
2018-02-20T16:20:19.486Z,1013.41
2018-02-20T16:21:19.862Z,1013.42
2018-02-20T16:22:19.482Z,1013.42
2018-02-20T16:23:19.664Z,1013.45
2018-02-20T16:24:19.584Z,1013.42
2018-02-20T16:25:19.557Z,1013.44
2018-02-20T16:26:19.599Z,1013.41
2018-02-20T16:27:19.749Z,1013.44
2018-02-20T16:28:19.733Z,1013.47
2018-02-20T16:29:19.694Z,1013.44
2018-02-20T16:30:19.842Z,1013.48
2018-02-20T16:31:21.113Z,1013.45
2018-02-20T16:32:19.891Z,1013.51
2018-02-20T16:33:19.937Z,1013.52
2018-02-20T16:34:19.930Z,1013.54
2018-02-20T16:35:19.980Z,1013.52
2018-02-20T16:36:20.069Z,1013.61
2018-02-20T16:37:20.280Z,1013.58
2018-02-20T16:39:20.299Z,1013.60
2018-02-20T16:40:20.122Z,1013.67
2018-02-20T16:41:20.416Z,1013.62
2018-02-20T16:42:21.416Z,1013.65
2018-02-20T16:43:21.176Z,1013.65
2018-02-20T16:44:20.278Z,1013.60
2018-02-20T16:45:20.486Z,1013.70
2018-02-20T16:46:20.356Z,1013.69
2018-02-20T16:47:20.661Z,1013.68
2018-02-20T16:48:20.906Z,1013.69
2018-02-20T16:49:20.517Z,1013.76
2018-02-20T16:50:20.519Z,1013.69
2018-02-20T16:51:20.694Z,1013.75
2018-02-20T16:52:20.640Z,1013.78
2018-02-20T16:53:20.660Z,1013.80
2018-02-20T16:54:20.668Z,1013.81
2018-02-20T16:55:20.696Z,1013.83
2018-02-20T16:56:20.748Z,1013.85
2018-02-20T16:57:20.771Z,1013.79
2018-02-20T16:58:20.812Z,1013.83
2018-02-20T16:59:20.852Z,1013.84
2018-02-20T17:00:20.932Z,1013.84
2018-02-20T17:01:20.939Z,1013.80
2018-02-20T17:02:20.983Z,1013.82
2018-02-20T17:03:21.007Z,1013.82
2018-02-20T17:04:21.055Z,1013.81
2018-02-20T17:05:21.087Z,1013.86
2018-02-20T17:06:21.165Z,1013.90
2018-02-20T17:07:21.165Z,1013.91
2018-02-20T17:08:21.204Z,1013.93
2018-02-20T17:09:21.243Z,1013.93
2018-02-20T17:10:21.294Z,1013.97
2018-02-20T17:11:21.335Z,1013.95
2018-02-20T17:12:21.461Z,1013.98
2018-02-20T17:13:21.392Z,1014.01
2018-02-20T17:14:21.469Z,1013.98
2018-02-20T17:15:21.467Z,1013.98
2018-02-20T17:16:21.530Z,1013.96
2018-02-20T17:17:21.568Z,1014.01
2018-02-20T17:18:21.648Z,1014.00
2018-02-20T17:19:21.643Z,1014.02
2018-02-20T17:20:21.672Z,1014.03
2018-02-20T17:21:21.745Z,1014.07
2018-02-20T17:22:21.755Z,1014.13
2018-02-20T17:23:21.867Z,1014.11
2018-02-20T17:24:21.827Z,1014.11
2018-02-20T17:25:21.926Z,1014.11
2018-02-20T17:26:21.903Z,1014.11
2018-02-20T17:27:21.940Z,1014.15
2018-02-20T17:28:21.973Z,1014.05
2018-02-20T17:29:22.019Z,1014.13
2018-02-20T17:30:22.053Z,1014.24
2018-02-20T17:31:22.129Z,1014.24
2018-02-20T17:32:22.142Z,1014.20
2018-02-20T17:33:22.171Z,1014.15
2018-02-20T17:34:22.208Z,1014.21
2018-02-20T17:35:22.250Z,1014.21
2018-02-20T17:36:22.296Z,1014.20
2018-02-20T17:37:22.327Z,1014.18
2018-02-20T17:38:22.366Z,1014.19
2018-02-20T17:39:22.411Z,1014.21
2018-02-20T17:40:22.443Z,1014.14
2018-02-20T17:41:22.485Z,1014.18
2018-02-20T17:42:22.521Z,1014.20
2018-02-20T17:43:22.561Z,1014.23
2018-02-20T17:44:22.600Z,1014.22
2018-02-20T17:45:22.640Z,1014.28
2018-02-20T17:46:22.693Z,1014.26
2018-02-20T17:47:22.719Z,1014.31
2018-02-20T17:48:22.762Z,1014.33
2018-02-20T17:49:22.792Z,1014.25
2018-02-20T17:50:22.838Z,1014.26
2018-02-20T17:51:22.896Z,1014.33
2018-02-20T17:52:22.909Z,1014.33
2018-02-20T17:53:22.951Z,1014.37
2018-02-20T17:54:22.985Z,1014.31
2018-02-20T17:55:23.046Z,1014.36
2018-02-20T17:56:23.065Z,1014.30
2018-02-20T17:57:23.106Z,1014.34
